Time;durP1;ratioP1;P1;durP2;ratioP2;P2;SDS_P1;SDS_P2;PMS_P1;PMS_P2;Temp;Humidity;BMP_temperature;BMP_pressure;BME280_temperature;BME280_humidity;BME280_pressure;Samples;Min_cycle;Max_cycle;Signal;HPM_P1;HPM_P2
2021/09/27 00:01:51;;;;;;;1.13;1.07;;;16.90;99.90;;;;;;5008074;28;20233;-74
2021/09/27 00:04:16;;;;;;;2.33;2.20;;;16.80;99.90;;;;;;5005817;28;20290;-74
2021/09/27 00:06:42;;;;;;;2.23;1.90;;;16.80;99.90;;;;;;5009430;28;20211;-74
2021/09/27 00:09:08;;;;;;;1.87;0.73;;;16.80;99.90;;;;;;5008848;28;20184;-74
2021/09/27 00:11:33;;;;;;;1.27;1.00;;;16.80;99.90;;;;;;5010382;28;21023;-74
2021/09/27 00:14:01;;;;;;;0.93;0.90;;;16.80;99.90;;;;;;5010558;28;20579;-74
2021/09/27 00:16:28;;;;;;;0.90;0.73;;;16.80;99.90;;;;;;5008608;28;20263;-74
2021/09/27 00:18:54;;;;;;;1.27;1.00;;;16.80;99.90;;;;;;5009292;28;20453;-74
2021/09/27 00:21:26;;;;;;;1.00;0.90;;;16.80;99.90;;;;;;5011345;28;20430;-74
2021/09/27 00:23:53;;;;;;;1.33;0.70;;;16.90;99.90;;;;;;5009005;28;20434;-75
2021/09/27 00:26:20;;;;;;;0.93;0.80;;;16.90;99.90;;;;;;5009888;28;20433;-74
2021/09/27 00:28:46;;;;;;;2.20;2.10;;;16.90;99.90;;;;;;5008552;28;20434;-74
2021/09/27 00:31:12;;;;;;;2.83;1.80;;;17.00;99.90;;;;;;5013005;28;20430;-75
2021/09/27 00:33:38;;;;;;;2.03;1.67;;;17.00;99.90;;;;;;5007850;28;20430;-74
2021/09/27 00:36:04;;;;;;;1.80;1.43;;;17.00;99.90;;;;;;5007864;28;20480;-74
2021/09/27 00:38:30;;;;;;;2.60;2.40;;;17.00;99.90;;;;;;5009373;28;20457;-74
2021/09/27 00:41:01;;;;;;;1.23;1.00;;;17.00;99.90;;;;;;5010728;28;20434;-74
2021/09/27 00:43:29;;;;;;;1.47;1.37;;;17.10;99.90;;;;;;5008040;28;20439;-74
2021/09/27 00:46:00;;;;;;;1.43;0.90;;;17.00;99.90;;;;;;5009271;28;20434;-74
2021/09/27 00:48:27;;;;;;;3.00;1.47;;;17.00;99.90;;;;;;5006404;28;20514;-74
2021/09/27 00:50:57;;;;;;;1.90;1.33;;;17.00;99.90;;;;;;5008190;28;20921;-74
2021/09/27 00:53:27;;;;;;;2.37;1.60;;;17.00;99.90;;;;;;5007890;28;20944;-74
2021/09/27 00:55:55;;;;;;;1.17;1.00;;;17.10;99.90;;;;;;5007953;28;20444;-74
2021/09/27 00:58:21;;;;;;;1.97;1.27;;;17.10;99.90;;;;;;5006385;28;20556;-74
2021/09/27 01:00:48;;;;;;;1.30;1.20;;;17.10;99.90;;;;;;5008122;28;20440;-74
2021/09/27 01:03:13;;;;;;;1.43;1.33;;;17.10;99.90;;;;;;5016057;28;20434;-74
2021/09/27 01:05:48;;;;;;;1.87;1.77;;;17.00;99.90;;;;;;5005864;28;20887;-74
2021/09/27 01:08:54;;;;;;;1.77;1.57;;;17.10;99.90;;;;;;5009891;28;20191;-74
2021/09/27 01:11:45;;;;;;;0.70;0.60;;;17.00;99.90;;;;;;5008233;28;20492;-74
2021/09/27 01:14:36;;;;;;;3.97;1.27;;;17.00;99.90;;;;;;5007786;28;20430;-74
2021/09/27 01:17:34;;;;;;;1.13;1.03;;;17.00;99.90;;;;;;5009084;28;20422;-74
2021/09/27 01:20:24;;;;;;;1.70;1.60;;;17.00;99.90;;;;;;5005996;28;20568;-74
2021/09/27 01:23:14;;;;;;;0.83;0.83;;;17.00;99.90;;;;;;5008263;28;20461;-74
2021/09/27 01:26:10;;;;;;;0.83;0.83;;;17.00;99.90;;;;;;5010719;28;20438;-74
2021/09/27 01:28:47;;;;;;;2.40;1.53;;;17.00;99.90;;;;;;5007683;28;20430;-74
2021/09/27 01:31:50;;;;;;;1.33;1.13;;;17.00;99.90;;;;;;5007506;28;20426;-74
2021/09/27 01:34:55;;;;;;;1.20;1.10;;;17.10;99.90;;;;;;5011030;28;20434;-74
2021/09/27 01:37:32;;;;;;;0.80;0.80;;;17.10;99.90;;;;;;5008110;28;20913;-74
2021/09/27 01:40:06;;;;;;;1.40;1.30;;;17.10;99.90;;;;;;5008126;28;22359;-74
2021/09/27 01:42:46;;;;;;;0.80;0.73;;;17.10;99.90;;;;;;5007488;28;20450;-74
2021/09/27 01:45:44;;;;;;;2.13;1.97;;;17.10;99.90;;;;;;5006774;28;20433;-74
2021/09/27 01:48:16;;;;;;;1.73;1.40;;;17.20;99.90;;;;;;5007655;28;20425;-74
2021/09/27 01:50:56;;;;;;;2.40;2.20;;;17.20;99.90;;;;;;5006785;28;20429;-74
2021/09/27 01:53:32;;;;;;;1.60;1.33;;;17.20;99.90;;;;;;5005325;28;20446;-74
2021/09/27 01:56:12;;;;;;;2.40;2.30;;;17.20;99.90;;;;;;5005912;28;20442;-74
2021/09/27 01:59:00;;;;;;;1.57;1.40;;;17.20;99.90;;;;;;5007336;28;20473;-74
2021/09/27 02:01:51;;;;;;;2.37;2.17;;;17.20;99.90;;;;;;5009667;28;20423;-74
2021/09/27 02:04:24;;;;;;;1.33;0.90;;;17.20;99.90;;;;;;5007277;28;20561;-74
2021/09/27 02:06:52;;;;;;;1.80;1.20;;;17.20;99.90;;;;;;5007402;28;20430;-74
2021/09/27 02:09:40;;;;;;;2.40;1.33;;;17.20;99.90;;;;;;5003502;28;20431;-74
2021/09/27 02:12:10;;;;;;;2.67;0.80;;;17.10;99.90;;;;;;5005603;28;20473;-74
2021/09/27 02:14:57;;;;;;;1.47;1.37;;;17.10;99.90;;;;;;5007015;28;20946;-74
2021/09/27 02:17:33;;;;;;;1.20;0.83;;;17.10;99.90;;;;;;5006078;28;20426;-74
2021/09/27 02:20:21;;;;;;;2.33;1.87;;;17.10;99.90;;;;;;5005967;28;20514;-75
2021/09/27 02:23:12;;;;;;;1.20;1.10;;;17.00;99.90;;;;;;5005765;28;20863;-75
2021/09/27 02:25:41;;;;;;;1.90;1.23;;;17.00;99.90;;;;;;5008530;28;20430;-74
2021/09/27 02:28:13;;;;;;;1.37;1.27;;;17.00;99.90;;;;;;5007863;28;20430;-74
2021/09/27 02:31:00;;;;;;;0.80;0.73;;;17.00;99.90;;;;;;5009804;28;20994;-75
2021/09/27 02:33:41;;;;;;;1.63;1.53;;;17.00;99.90;;;;;;5005635;28;20886;-74
2021/09/27 02:36:09;;;;;;;1.20;1.10;;;16.80;99.90;;;;;;5006808;28;20863;-74
2021/09/27 02:38:46;;;;;;;1.93;1.30;;;16.70;99.90;;;;;;5006280;28;20600;-74
2021/09/27 02:41:17;;;;;;;0.83;0.83;;;16.70;99.90;;;;;;5006153;28;20425;-74
2021/09/27 02:43:44;;;;;;;4.80;2.07;;;16.60;99.90;;;;;;5007046;28;20422;-74
2021/09/27 02:46:11;;;;;;;1.30;1.07;;;16.70;99.90;;;;;;5001741;28;20462;-74
2021/09/27 02:48:42;;;;;;;4.30;1.83;;;16.60;99.90;;;;;;5008056;28;20458;-74
2021/09/27 02:51:10;;;;;;;0.90;0.70;;;16.60;99.90;;;;;;5007914;28;20417;-75
2021/09/27 02:53:36;;;;;;;1.20;1.07;;;16.60;99.90;;;;;;5023042;28;20515;-74
2021/09/27 02:56:19;;;;;;;2.20;0.97;;;16.60;99.90;;;;;;5005793;28;20422;-74
2021/09/27 02:58:53;;;;;;;1.33;1.17;;;16.60;99.90;;;;;;5010000;28;20469;-74
2021/09/27 03:01:44;;;;;;;1.30;1.03;;;16.50;99.90;;;;;;5008853;28;20430;-74
2021/09/27 03:04:16;;;;;;;1.20;1.10;;;16.50;99.90;;;;;;5006626;28;20430;-74
2021/09/27 03:07:30;;;;;;;0.90;0.90;;;16.40;99.90;;;;;;5006156;28;20504;-74
2021/09/27 03:10:04;;;;;;;2.00;1.80;;;16.40;99.90;;;;;;5007132;28;20433;-74
2021/09/27 03:12:40;;;;;;;1.17;1.07;;;16.30;99.90;;;;;;5006765;28;20483;-74
2021/09/27 03:15:51;;;;;;;1.60;1.33;;;16.30;99.90;;;;;;5006187;28;20434;-74
2021/09/27 03:18:17;;;;;;;3.47;3.27;;;16.30;99.90;;;;;;5000942;28;20510;-74
2021/09/27 03:20:45;;;;;;;2.90;2.70;;;16.30;99.90;;;;;;5006179;28;22367;-74
2021/09/27 03:23:14;;;;;;;2.50;2.00;;;16.20;99.90;;;;;;5008479;28;20446;-74
2021/09/27 03:26:03;;;;;;;0.90;0.90;;;16.20;99.90;;;;;;5007367;28;20461;-73
2021/09/27 03:28:29;;;;;;;1.17;0.97;;;16.10;99.90;;;;;;5006837;28;22414;-74
2021/09/27 03:31:22;;;;;;;8.03;3.63;;;16.10;99.90;;;;;;5006707;28;20434;-74
2021/09/27 03:34:15;;;;;;;0.77;0.70;;;16.00;99.90;;;;;;5020825;28;20740;-74
2021/09/27 03:36:58;;;;;;;1.53;1.43;;;16.00;99.90;;;;;;5005471;28;20453;-74
2021/09/27 03:39:30;;;;;;;1.00;0.83;;;16.00;99.90;;;;;;5006442;28;20462;-74
2021/09/27 03:42:07;;;;;;;1.83;1.73;;;16.00;99.90;;;;;;5002983;28;20508;-74
2021/09/27 03:44:49;;;;;;;1.60;1.37;;;16.00;99.90;;;;;;5012711;28;20425;-74
2021/09/27 03:47:34;;;;;;;1.40;1.30;;;16.00;99.90;;;;;;5009622;28;20422;-74
2021/09/27 03:50:08;;;;;;;1.63;1.53;;;15.90;99.90;;;;;;5026973;28;20472;-74
2021/09/27 03:52:42;;;;;;;2.90;1.90;;;16.00;99.90;;;;;;5011430;28;20955;-74
2021/09/27 03:55:20;;;;;;;1.83;0.97;;;16.00;99.90;;;;;;5009891;28;20438;-74
2021/09/27 03:58:16;;;;;;;1.70;0.93;;;16.00;99.90;;;;;;5009926;28;20612;-74
2021/09/27 04:00:49;;;;;;;4.77;1.33;;;16.00;99.90;;;;;;5010330;28;20576;-74
2021/09/27 04:03:17;;;;;;;1.47;1.30;;;16.00;99.90;;;;;;5009939;28;20453;-74
2021/09/27 04:06:04;;;;;;;1.30;1.20;;;15.90;99.90;;;;;;5010083;28;20430;-74
2021/09/27 04:08:49;;;;;;;3.73;2.63;;;15.90;99.90;;;;;;5009648;28;20438;-74
2021/09/27 04:12:05;;;;;;;2.10;1.43;;;15.90;99.90;;;;;;5009223;28;20438;-74
2021/09/27 04:14:46;;;;;;;2.40;1.70;;;15.90;99.90;;;;;;5005876;28;20438;-74
2021/09/27 04:17:17;;;;;;;1.53;0.73;;;16.00;99.90;;;;;;5011199;28;20800;-74
2021/09/27 04:19:53;;;;;;;2.40;2.20;;;16.00;99.90;;;;;;5008705;28;20457;-74
2021/09/27 04:22:36;;;;;;;1.10;1.00;;;16.00;99.90;;;;;;5009427;28;20882;-74
2021/09/27 04:25:19;;;;;;;2.97;1.50;;;16.10;99.90;;;;;;5009365;28;20422;-74
2021/09/27 04:28:04;;;;;;;1.73;1.40;;;16.10;99.90;;;;;;5011239;28;20436;-74
2021/09/27 04:30:48;;;;;;;1.27;1.20;;;16.10;99.90;;;;;;5009939;28;20436;-75
2021/09/27 04:33:42;;;;;;;1.57;0.93;;;16.10;99.90;;;;;;5009021;28;20533;-74
2021/09/27 04:36:20;;;;;;;1.20;1.10;;;16.10;99.90;;;;;;5008187;28;20481;-74
2021/09/27 04:38:49;;;;;;;1.00;0.77;;;16.10;99.90;;;;;;5008404;28;20468;-74
2021/09/27 04:41:15;;;;;;;1.33;1.23;;;16.20;99.90;;;;;;5008311;28;20438;-74
2021/09/27 04:43:40;;;;;;;3.40;1.43;;;16.10;99.90;;;;;;5009402;28;20430;-74
2021/09/27 04:46:28;;;;;;;4.33;3.20;;;16.20;99.90;;;;;;5009532;28;20180;-74
2021/09/27 04:49:19;;;;;;;1.67;1.57;;;16.10;99.90;;;;;;5007738;28;20179;-73
2021/09/27 04:51:55;;;;;;;1.40;1.30;;;16.20;99.90;;;;;;5005820;28;20461;-74
2021/09/27 04:54:40;;;;;;;3.47;3.27;;;16.20;99.90;;;;;;5007217;28;20893;-74
2021/09/27 04:57:19;;;;;;;3.03;1.90;;;16.10;99.90;;;;;;5008691;28;20565;-74
2021/09/27 04:59:53;;;;;;;2.43;1.40;;;16.10;99.90;;;;;;5008119;28;20499;-74
2021/09/27 05:02:39;;;;;;;1.67;1.57;;;16.10;99.90;;;;;;5013639;28;20450;-74
2021/09/27 05:05:16;;;;;;;1.70;1.40;;;16.10;99.90;;;;;;5008767;28;20429;-75
2021/09/27 05:08:06;;;;;;;1.90;1.00;;;16.10;99.90;;;;;;5006014;28;20474;-74
2021/09/27 05:10:35;;;;;;;2.27;2.07;;;16.10;99.90;;;;;;5008098;28;20855;-74
2021/09/27 05:13:43;;;;;;;3.13;2.20;;;16.20;99.90;;;;;;5008391;28;21260;-74
2021/09/27 05:16:27;;;;;;;1.67;1.57;;;16.20;99.90;;;;;;4987499;28;20434;-74
2021/09/27 05:19:26;;;;;;;1.07;0.97;;;16.20;99.90;;;;;;5007868;28;20469;-74
2021/09/27 05:22:19;;;;;;;0.90;0.83;;;16.20;99.90;;;;;;5007559;28;20450;-74
2021/09/27 05:25:22;;;;;;;1.67;1.23;;;16.20;99.90;;;;;;5008374;28;20527;-74
2021/09/27 05:27:56;;;;;;;4.37;2.60;;;16.10;99.90;;;;;;5009057;28;20445;-74
2021/09/27 05:30:48;;;;;;;2.33;1.53;;;16.10;99.90;;;;;;5008458;28;20500;-74
2021/09/27 05:33:41;;;;;;;1.67;1.57;;;16.10;99.90;;;;;;5002930;28;20481;-74
2021/09/27 05:36:16;;;;;;;6.63;2.43;;;16.00;99.90;;;;;;5007963;28;21454;-75
2021/09/27 05:38:51;;;;;;;1.00;0.70;;;16.00;99.90;;;;;;5007440;28;20454;-74
2021/09/27 05:41:38;;;;;;;1.20;1.10;;;16.00;99.90;;;;;;5008003;28;20425;-75
2021/09/27 05:44:50;;;;;;;1.67;1.57;;;16.00;99.90;;;;;;5007703;28;20434;-74
2021/09/27 05:47:28;;;;;;;2.20;1.60;;;15.90;99.90;;;;;;5007646;28;20437;-74
2021/09/27 05:50:06;;;;;;;1.93;1.03;;;15.90;99.90;;;;;;5008053;28;20574;-74
2021/09/27 05:53:02;;;;;;;1.80;1.70;;;15.90;99.90;;;;;;5008939;28;20459;-75
2021/09/27 05:55:42;;;;;;;1.37;1.17;;;15.90;99.90;;;;;;5016376;28;20443;-74
2021/09/27 05:58:36;;;;;;;0.90;0.60;;;16.00;99.90;;;;;;5022760;28;20466;-74
2021/09/27 06:01:07;;;;;;;2.20;2.10;;;15.90;99.90;;;;;;5021445;28;20429;-75
2021/09/27 06:03:45;;;;;;;1.57;0.90;;;15.90;99.90;;;;;;5013965;28;20501;-75
2021/09/27 06:06:21;;;;;;;3.83;1.80;;;16.00;99.90;;;;;;5016191;28;20418;-75
2021/09/27 06:09:14;;;;;;;2.23;1.90;;;16.00;99.90;;;;;;5013343;28;20978;-74
2021/09/27 06:12:08;;;;;;;3.47;1.80;;;16.10;99.90;;;;;;5014247;28;20806;-76
2021/09/27 06:14:35;;;;;;;1.73;1.10;;;16.10;99.90;;;;;;5009069;28;20515;-75
2021/09/27 06:17:19;;;;;;;1.93;1.83;;;16.20;99.90;;;;;;5013132;28;20411;-74
2021/09/27 06:20:12;;;;;;;0.83;0.73;;;16.20;99.90;;;;;;5014571;28;20427;-74
2021/09/27 06:23:00;;;;;;;1.83;1.57;;;16.30;99.90;;;;;;5018041;28;20492;-74
2021/09/27 06:25:42;;;;;;;2.73;1.60;;;16.40;99.90;;;;;;5012601;28;20811;-75
2021/09/27 06:28:29;;;;;;;1.10;0.77;;;16.40;99.90;;;;;;5019200;28;20418;-74
2021/09/27 06:31:01;;;;;;;1.50;1.40;;;16.50;99.90;;;;;;5020847;28;20415;-75
2021/09/27 06:33:40;;;;;;;2.70;2.50;;;16.50;99.90;;;;;;5018280;28;20522;-74
2021/09/27 06:36:13;;;;;;;1.50;1.23;;;16.60;99.90;;;;;;5020797;28;20446;-74
2021/09/27 06:38:39;;;;;;;4.30;1.83;;;16.70;99.90;;;;;;5019693;28;20592;-75
2021/09/27 06:41:08;;;;;;;1.73;1.63;;;16.80;99.90;;;;;;5020824;28;20414;-74
2021/09/27 06:43:34;;;;;;;1.10;1.00;;;16.80;99.90;;;;;;5022071;28;20454;-74
2021/09/27 06:45:59;;;;;;;1.43;1.33;;;16.80;99.90;;;;;;5028785;28;20430;-74
2021/09/27 06:48:25;;;;;;;1.20;1.07;;;16.80;99.90;;;;;;5020175;28;20199;-75
2021/09/27 06:50:52;;;;;;;4.40;2.20;;;16.90;99.90;;;;;;5023453;28;20216;-75
2021/09/27 06:53:18;;;;;;;2.00;1.30;;;16.90;99.90;;;;;;5016868;28;20202;-75
2021/09/27 06:55:44;;;;;;;4.27;2.30;;;17.00;99.90;;;;;;5028194;28;20434;-75
2021/09/27 06:58:11;;;;;;;2.30;1.43;;;17.10;99.90;;;;;;5024164;28;20242;-74
2021/09/27 07:00:37;;;;;;;4.07;3.67;;;17.10;99.90;;;;;;5016412;28;20432;-75
2021/09/27 07:03:03;;;;;;;3.20;2.00;;;17.20;99.90;;;;;;5022654;28;20538;-74
2021/09/27 07:05:28;;;;;;;0.80;0.80;;;17.30;99.90;;;;;;5021615;28;20497;-75
2021/09/27 07:07:55;;;;;;;2.17;1.90;;;17.50;99.90;;;;;;5031971;28;20617;-74
2021/09/27 07:10:23;;;;;;;8.33;2.07;;;17.60;99.90;;;;;;5028213;28;20184;-74
2021/09/27 07:12:49;;;;;;;1.37;1.27;;;17.70;99.90;;;;;;5026829;28;20549;-75
2021/09/27 07:15:15;;;;;;;3.83;2.17;;;17.80;99.90;;;;;;5031341;28;20492;-75
2021/09/27 07:17:40;;;;;;;1.07;0.97;;;17.80;99.90;;;;;;5030648;28;20234;-74
2021/09/27 07:20:17;;;;;;;4.13;2.00;;;17.90;99.90;;;;;;5032401;28;20839;-75
2021/09/27 07:22:42;;;;;;;0.83;0.83;;;17.90;99.90;;;;;;5033499;28;20195;-74
2021/09/27 07:25:10;;;;;;;1.00;0.87;;;17.90;99.90;;;;;;5033456;28;20949;-75
2021/09/27 07:27:36;;;;;;;1.27;1.17;;;18.00;99.90;;;;;;5023917;28;20176;-75
2021/09/27 07:30:03;;;;;;;1.70;1.60;;;18.00;99.90;;;;;;5019387;28;20485;-75
2021/09/27 07:32:28;;;;;;;1.70;1.60;;;18.10;99.90;;;;;;5030049;28;20198;-75
2021/09/27 07:34:54;;;;;;;3.33;2.13;;;18.20;99.90;;;;;;5026269;28;20427;-75
2021/09/27 07:37:19;;;;;;;1.10;1.00;;;18.30;99.90;;;;;;5027282;28;20186;-75
2021/09/27 07:39:45;;;;;;;3.57;1.83;;;18.50;99.90;;;;;;5027285;28;20233;-75
2021/09/27 07:42:11;;;;;;;1.43;1.20;;;18.70;99.90;;;;;;5020882;28;20218;-75
2021/09/27 07:44:37;;;;;;;1.63;1.53;;;18.80;99.90;;;;;;5024879;28;20732;-75
2021/09/27 07:47:03;;;;;;;2.20;1.93;;;18.90;99.90;;;;;;5022616;28;20581;-75
2021/09/27 07:49:29;;;;;;;1.13;1.03;;;18.90;99.90;;;;;;5024177;28;22155;-75
2021/09/27 07:51:57;;;;;;;1.13;1.03;;;19.10;99.90;;;;;;5028640;28;20441;-75
2021/09/27 07:54:25;;;;;;;2.77;1.90;;;19.20;99.90;;;;;;5031304;28;20433;-75
2021/09/27 07:56:51;;;;;;;1.97;1.87;;;19.30;99.90;;;;;;5024224;28;20447;-75
2021/09/27 07:59:17;;;;;;;3.07;2.40;;;19.40;99.90;;;;;;5017475;28;21163;-75
2021/09/27 08:01:43;;;;;;;1.53;0.90;;;19.50;99.90;;;;;;5019612;28;20219;-75
2021/09/27 08:04:15;;;;;;;2.27;1.83;;;19.60;99.90;;;;;;5018688;28;20230;-75
2021/09/27 08:06:41;;;;;;;2.20;2.10;;;19.70;99.90;;;;;;5025905;28;20160;-75
2021/09/27 08:09:09;;;;;;;4.13;1.30;;;19.80;99.90;;;;;;5031720;28;20425;-75
2021/09/27 08:11:36;;;;;;;2.87;2.67;;;20.00;99.90;;;;;;5035732;28;20425;-76
2021/09/27 08:14:02;;;;;;;1.73;1.40;;;20.30;99.90;;;;;;5024907;28;20414;-76
2021/09/27 08:16:28;;;;;;;4.17;1.67;;;20.70;99.90;;;;;;5037639;28;21015;-77
2021/09/27 08:18:54;;;;;;;1.17;1.07;;;21.00;99.90;;;;;;5031353;28;20237;-76
2021/09/27 08:21:20;;;;;;;1.93;1.77;;;21.20;99.90;;;;;;5033746;28;20418;-77
2021/09/27 08:23:46;;;;;;;1.40;1.30;;;21.50;99.90;;;;;;5030398;28;20171;-77
2021/09/27 08:26:12;;;;;;;1.23;1.00;;;21.80;99.90;;;;;;5031330;28;20425;-76
2021/09/27 08:28:38;;;;;;;1.10;1.00;;;22.20;99.90;;;;;;5026458;28;20426;-77
2021/09/27 08:31:08;;;;;;;1.50;1.40;;;22.60;99.90;;;;;;5025350;28;20237;-76
2021/09/27 08:33:34;;;;;;;1.40;1.30;;;23.10;99.90;;;;;;5019143;28;20462;-78
2021/09/27 08:36:02;;;;;;;3.10;2.03;;;23.60;99.90;;;;;;5020616;28;20430;-76
2021/09/27 08:38:28;;;;;;;1.20;1.07;;;24.00;99.90;;;;;;5013459;28;20195;-77
2021/09/27 08:40:54;;;;;;;1.87;1.00;;;24.50;99.90;;;;;;5011998;28;20433;-78
2021/09/27 08:43:47;;;;;;;1.30;1.00;;;24.80;99.90;;;;;;5018130;28;20218;-76
2021/09/27 08:46:15;;;;;;;3.77;1.80;;;24.80;99.90;;;;;;5018914;28;20186;-75
2021/09/27 08:48:51;;;;;;;1.93;1.77;;;24.90;99.90;;;;;;5020207;28;20432;-76
2021/09/27 08:51:17;;;;;;;1.33;1.23;;;25.20;99.90;;;;;;5024628;28;20504;-76
2021/09/27 08:53:51;;;;;;;1.50;1.10;;;25.20;99.90;;;;;;5018380;28;20835;-76
2021/09/27 08:56:41;;;;;;;1.27;0.90;;;25.00;99.90;;;;;;5014268;28;20156;-75
2021/09/27 08:59:30;;;;;;;1.63;1.53;;;24.50;99.90;;;;;;5023371;28;22209;-76
2021/09/27 09:02:23;;;;;;;2.90;1.67;;;23.80;99.90;;;;;;5027107;28;20450;-75
2021/09/27 09:05:20;;;;;;;2.60;1.37;;;23.60;99.90;;;;;;5027898;28;20430;-75
2021/09/27 09:08:00;;;;;;;1.50;1.20;;;23.50;99.90;;;;;;5024635;28;20438;-75
2021/09/27 09:10:38;;;;;;;0.93;0.83;;;23.60;99.90;;;;;;5033811;28;20787;-75
2021/09/27 09:13:05;;;;;;;3.83;1.57;;;23.90;99.90;;;;;;5024378;28;20525;-76
2021/09/27 09:15:31;;;;;;;1.57;1.37;;;24.70;99.90;;;;;;5015071;28;20410;-77
2021/09/27 09:18:20;;;;;;;1.73;1.57;;;24.90;99.90;;;;;;5023001;28;20811;-77
2021/09/27 09:21:00;;;;;;;1.10;1.00;;;25.40;99.90;;;;;;5022680;28;20264;-76
2021/09/27 09:23:36;;;;;;;2.00;1.50;;;25.00;99.90;;;;;;5032984;28;20525;-76
2021/09/27 09:26:05;;;;;;;1.17;1.00;;;24.60;99.90;;;;;;5033009;28;20410;-76
2021/09/27 09:28:30;;;;;;;1.27;0.73;;;24.30;99.90;;;;;;5028883;28;20418;-76
2021/09/27 09:31:07;;;;;;;0.90;0.73;;;24.00;99.90;;;;;;5012517;28;20457;-76
2021/09/27 09:33:38;;;;;;;1.07;0.70;;;23.90;99.90;;;;;;5011386;28;20652;-76
2021/09/27 09:36:05;;;;;;;0.80;0.80;;;23.50;99.90;;;;;;5030346;28;20422;-76
2021/09/27 09:38:37;;;;;;;0.93;0.80;;;23.30;99.90;;;;;;5019570;28;20845;-75
2021/09/27 09:41:04;;;;;;;0.70;0.50;;;23.20;99.90;;;;;;5031664;28;20418;-76
2021/09/27 09:43:33;;;;;;;1.00;0.90;;;23.00;99.90;;;;;;5030071;28;20501;-75
2021/09/27 09:46:14;;;;;;;1.10;0.83;;;23.00;99.90;;;;;;5014552;28;20919;-76
2021/09/27 09:48:59;;;;;;;3.07;1.97;;;22.90;99.90;;;;;;5014387;28;20430;-77
2021/09/27 09:51:33;;;;;;;1.00;0.90;;;22.80;99.90;;;;;;5017583;28;20846;-77
2021/09/27 09:54:05;;;;;;;1.10;0.80;;;22.60;99.90;;;;;;5031745;28;20840;-77
2021/09/27 09:56:35;;;;;;;0.80;0.70;;;22.30;99.90;;;;;;5024522;28;20635;-75
2021/09/27 09:59:25;;;;;;;1.73;1.27;;;22.20;99.90;;;;;;5032966;28;20984;-75
2021/09/27 10:01:56;;;;;;;0.80;0.60;;;22.10;99.90;;;;;;5011837;28;20519;-75
2021/09/27 10:04:42;;;;;;;1.70;1.40;;;22.10;99.90;;;;;;5013143;28;20400;-74
2021/09/27 10:07:17;;;;;;;0.80;0.70;;;22.20;99.90;;;;;;5020940;28;20457;-76
2021/09/27 10:10:00;;;;;;;0.80;0.63;;;22.30;99.90;;;;;;5032651;28;20410;-76
2021/09/27 10:12:47;;;;;;;1.00;0.93;;;22.50;99.90;;;;;;5031465;28;20426;-75
2021/09/27 10:15:33;;;;;;;1.00;0.90;;;22.50;99.90;;;;;;5030104;28;20418;-76
2021/09/27 10:18:06;;;;;;;0.80;0.50;;;22.50;99.90;;;;;;5032440;28;20446;-75
2021/09/27 10:20:50;;;;;;;0.80;0.60;;;22.50;99.90;;;;;;5033026;28;20934;-76
2021/09/27 10:23:37;;;;;;;1.13;1.03;;;22.40;99.90;;;;;;5030857;28;20517;-76
2021/09/27 10:26:26;;;;;;;2.10;1.07;;;22.40;99.90;;;;;;5031042;28;20429;-75
2021/09/27 10:28:54;;;;;;;1.10;0.90;;;22.40;99.90;;;;;;5013395;28;20473;-76
2021/09/27 10:31:23;;;;;;;0.90;0.80;;;22.50;99.90;;;;;;5013692;28;20423;-76
2021/09/27 10:33:53;;;;;;;0.90;0.80;;;22.60;99.90;;;;;;5018762;28;20418;-77
2021/09/27 10:36:31;;;;;;;1.77;0.90;;;22.70;99.90;;;;;;5033883;28;20838;-77
2021/09/27 10:38:58;;;;;;;1.00;0.83;;;22.90;99.90;;;;;;5035435;28;20446;-77
2021/09/27 10:41:39;;;;;;;1.50;1.20;;;22.90;99.90;;;;;;5034501;28;20441;-77
2021/09/27 10:44:13;;;;;;;1.17;1.00;;;23.00;99.90;;;;;;5033513;28;20811;-77
2021/09/27 10:46:40;;;;;;;0.90;0.60;;;23.00;99.90;;;;;;5013824;28;20477;-77
2021/09/27 10:49:14;;;;;;;0.90;0.80;;;23.00;99.90;;;;;;5012629;28;20423;-76
2021/09/27 10:51:40;;;;;;;0.87;0.63;;;23.00;99.90;;;;;;5013591;28;20959;-77
2021/09/27 10:54:33;;;;;;;1.07;0.97;;;23.10;99.90;;;;;;5013984;28;20446;-76
2021/09/27 10:56:58;;;;;;;0.90;0.80;;;23.10;99.90;;;;;;5013649;28;20518;-75
2021/09/27 10:59:46;;;;;;;0.90;0.70;;;23.20;99.90;;;;;;5013360;28;20463;-76
2021/09/27 11:02:34;;;;;;;1.37;1.00;;;23.40;99.90;;;;;;5013467;28;20449;-78
2021/09/27 11:05:18;;;;;;;0.90;0.80;;;23.90;99.90;;;;;;5014527;28;20439;-78
2021/09/27 11:07:47;;;;;;;0.80;0.60;;;24.80;99.90;;;;;;5011818;28;20427;-76
2021/09/27 11:10:26;;;;;;;2.70;0.90;;;25.50;99.90;;;;;;5011227;28;20446;-76
2021/09/27 11:12:53;;;;;;;0.90;0.70;;;25.50;99.90;;;;;;5013381;28;20449;-76
2021/09/27 11:15:30;;;;;;;1.10;0.70;;;25.20;99.90;;;;;;5013223;28;20423;-77
2021/09/27 11:18:13;;;;;;;1.00;0.90;;;24.90;99.90;;;;;;5014300;28;20586;-77
2021/09/27 11:20:41;;;;;;;0.90;0.77;;;24.70;99.90;;;;;;5023234;28;20458;-76
2021/09/27 11:23:29;;;;;;;0.80;0.70;;;24.50;99.90;;;;;;5033492;28;20437;-76
2021/09/27 11:26:30;;;;;;;1.50;0.80;;;24.30;99.90;;;;;;5031873;28;20418;-77
2021/09/27 11:29:17;;;;;;;1.33;0.80;;;24.40;99.90;;;;;;5034587;28;20406;-78
2021/09/27 11:31:43;;;;;;;0.90;0.80;;;24.20;99.90;;;;;;5033677;28;20434;-78
2021/09/27 11:34:08;;;;;;;0.97;0.87;;;24.30;99.90;;;;;;5033969;28;20900;-76
2021/09/27 11:37:13;;;;;;;1.10;1.00;;;24.20;99.90;;;;;;5029886;28;20402;-76
2021/09/27 11:40:00;;;;;;;0.80;0.60;;;24.50;99.90;;;;;;5004649;28;20638;-76
2021/09/27 11:42:50;;;;;;;0.80;0.60;;;24.40;99.90;;;;;;5011755;28;20438;-76
2021/09/27 11:45:34;;;;;;;0.80;0.60;;;24.80;99.90;;;;;;5028225;28;20471;-77
2021/09/27 11:48:18;;;;;;;0.87;0.70;;;25.00;99.90;;;;;;5030362;28;20489;-76
2021/09/27 11:51:04;;;;;;;0.90;0.70;;;24.90;99.90;;;;;;5028782;28;20501;-75
2021/09/27 11:53:49;;;;;;;0.97;0.87;;;25.20;99.90;;;;;;5029727;28;20525;-73
2021/09/27 11:56:36;;;;;;;1.10;1.00;;;25.10;99.90;;;;;;5031188;28;20986;-73
2021/09/27 11:59:47;;;;;;;1.20;0.80;;;24.80;99.90;;;;;;5023303;28;20460;-73
2021/09/27 12:02:36;;;;;;;1.10;0.70;;;24.50;99.90;;;;;;5006105;28;20435;-74
2021/09/27 12:05:19;;;;;;;1.00;0.90;;;24.90;99.90;;;;;;5014982;28;20486;-74
2021/09/27 12:07:51;;;;;;;0.90;0.80;;;25.00;99.90;;;;;;5014013;28;20442;-75
2021/09/27 12:10:41;;;;;;;0.80;0.57;;;24.90;99.90;;;;;;5015421;28;20474;-73
2021/09/27 12:13:35;;;;;;;0.80;0.60;;;24.40;99.90;;;;;;5015353;28;20423;-73
2021/09/27 12:16:04;;;;;;;0.90;0.60;;;24.00;99.90;;;;;;5016852;28;20401;-73
2021/09/27 12:18:54;;;;;;;1.43;1.33;;;24.30;99.90;;;;;;5033006;28;20449;-74
2021/09/27 12:21:27;;;;;;;0.80;0.60;;;24.50;99.90;;;;;;5014915;28;20861;-74
2021/09/27 12:24:05;;;;;;;1.10;0.87;;;24.80;99.90;;;;;;5015075;28;20407;-76
2021/09/27 12:26:37;;;;;;;0.90;0.80;;;24.90;99.90;;;;;;5025746;28;20492;-74
2021/09/27 12:29:16;;;;;;;1.10;0.80;;;24.50;99.90;;;;;;5033191;28;20504;-74
2021/09/27 12:31:57;;;;;;;0.80;0.60;;;24.40;99.90;;;;;;5034686;28;20869;-74
2021/09/27 12:34:33;;;;;;;1.00;0.87;;;24.60;99.90;;;;;;5032729;28;20453;-75
2021/09/27 12:37:00;;;;;;;0.80;0.60;;;24.50;99.90;;;;;;5033606;28;20500;-72
2021/09/27 12:39:29;;;;;;;0.80;0.70;;;24.20;99.90;;;;;;5034525;28;20477;-74
2021/09/27 12:41:57;;;;;;;0.80;0.60;;;24.20;99.90;;;;;;5032600;28;20817;-76
2021/09/27 12:44:28;;;;;;;1.00;0.73;;;24.10;99.90;;;;;;5034528;28;20402;-76
2021/09/27 12:46:56;;;;;;;0.90;0.70;;;23.70;99.90;;;;;;5019361;28;20422;-77
2021/09/27 12:49:38;;;;;;;0.80;0.50;;;23.50;99.90;;;;;;5016040;28;20773;-77
2021/09/27 12:52:08;;;;;;;1.33;0.70;;;23.50;99.90;;;;;;5014549;28;20423;-76
2021/09/27 12:54:43;;;;;;;1.00;0.77;;;23.60;99.90;;;;;;5025880;28;20524;-76
2021/09/27 12:57:35;;;;;;;0.80;0.70;;;23.40;99.90;;;;;;5019210;28;20430;-75
2021/09/27 13:00:05;;;;;;;0.80;0.63;;;23.20;99.90;;;;;;5034330;28;20403;-76
2021/09/27 13:02:38;;;;;;;1.27;1.17;;;23.10;99.90;;;;;;5026611;28;20435;-77
2021/09/27 13:05:15;;;;;;;0.80;0.70;;;22.90;99.90;;;;;;5016418;28;20423;-76
2021/09/27 13:07:53;;;;;;;1.43;0.87;;;22.80;99.90;;;;;;5026098;28;20422;-75
2021/09/27 13:10:18;;;;;;;0.80;0.50;;;22.60;99.90;;;;;;5033717;28;20433;-75
2021/09/27 13:13:22;;;;;;;1.57;0.93;;;22.40;99.90;;;;;;5033574;28;20426;-75
2021/09/27 13:15:54;;;;;;;1.27;1.17;;;22.40;99.90;;;;;;5018772;28;20207;-74
2021/09/27 13:18:43;;;;;;;0.90;0.80;;;22.30;99.90;;;;;;5013807;28;20482;-75
2021/09/27 13:21:24;;;;;;;0.90;0.73;;;22.20;99.90;;;;;;5030060;28;20475;-74
2021/09/27 13:23:54;;;;;;;1.10;0.80;;;22.10;99.90;;;;;;5019724;28;20979;-75
2021/09/27 13:26:42;;;;;;;1.63;1.10;;;22.00;99.90;;;;;;5021912;28;20521;-75
2021/09/27 13:29:35;;;;;;;0.80;0.60;;;21.90;99.90;;;;;;5014157;28;20423;-76
2021/09/27 13:32:10;;;;;;;0.80;0.60;;;21.80;99.90;;;;;;5019173;28;20437;-76
2021/09/27 13:35:17;;;;;;;1.83;1.23;;;21.70;99.90;;;;;;5018633;28;20415;-77
2021/09/27 13:37:42;;;;;;;0.87;0.87;;;21.60;99.90;;;;;;5015359;28;20426;-77
2021/09/27 13:40:29;;;;;;;0.80;0.60;;;21.50;99.90;;;;;;5033518;28;20419;-75